Time;durP1;ratioP1;P1;durP2;ratioP2;P2;SDS_P1;SDS_P2;PMS_P1;PMS_P2;Temp;Humidity;BMP_temperature;BMP_pressure;BME280_temperature;BME280_humidity;BME280_pressure;Samples;Min_cycle;Max_cycle;Signal;HPM_P1;HPM_P2
2022/04/15 00:02:24;;;;;;;18.60;10.25;;;11.80;99.90;;;;;;6255253;22;20038;-81
2022/04/15 00:04:51;;;;;;;19.02;10.85;;;11.80;99.90;;;;;;6281051;22;20029;-81
2022/04/15 00:07:18;;;;;;;17.77;9.70;;;11.80;99.90;;;;;;6281033;22;20060;-80
2022/04/15 00:09:45;;;;;;;16.45;9.55;;;11.80;99.90;;;;;;6255318;22;20421;-81
2022/04/15 00:12:17;;;;;;;16.05;9.73;;;11.70;99.90;;;;;;6255123;22;20011;-81
2022/04/15 00:14:45;;;;;;;15.38;11.00;;;11.70;99.90;;;;;;6307042;22;20038;-81
2022/04/15 00:17:12;;;;;;;16.30;9.30;;;11.70;99.90;;;;;;6308031;22;20015;-81
2022/04/15 00:19:39;;;;;;;17.75;10.18;;;11.60;99.90;;;;;;6308044;22;20052;-81
2022/04/15 00:22:06;;;;;;;18.25;9.75;;;11.50;99.90;;;;;;6308186;22;20109;-81
2022/04/15 00:24:33;;;;;;;20.08;10.02;;;11.40;99.90;;;;;;6255254;22;20110;-81
2022/04/15 00:26:59;;;;;;;15.75;9.82;;;11.40;99.90;;;;;;6306897;22;20035;-81
2022/04/15 00:29:28;;;;;;;18.98;10.20;;;11.30;99.90;;;;;;6280678;22;20447;-81
2022/04/15 00:31:56;;;;;;;17.40;9.82;;;11.30;99.90;;;;;;6281171;22;19999;-81
2022/04/15 00:34:22;;;;;;;13.35;8.60;;;11.30;99.90;;;;;;6308312;22;19999;-81
2022/04/15 00:36:49;;;;;;;20.10;10.07;;;11.30;99.90;;;;;;6281049;22;20034;-81
2022/04/15 00:39:16;;;;;;;16.23;9.95;;;11.30;99.90;;;;;;6306368;22;20026;-81
2022/04/15 00:41:43;;;;;;;13.50;9.55;;;11.20;99.90;;;;;;6306129;22;20012;-81
2022/04/15 00:44:10;;;;;;;16.08;9.15;;;11.20;99.90;;;;;;6280698;22;19999;-81
2022/04/15 00:46:38;;;;;;;19.55;9.93;;;11.20;99.90;;;;;;6280491;22;20033;-81
2022/04/15 00:49:05;;;;;;;16.27;9.32;;;11.20;99.90;;;;;;6280581;22;20004;-81
2022/04/15 00:51:35;;;;;;;19.63;9.93;;;11.20;99.90;;;;;;6306077;22;20011;-81
2022/04/15 00:54:03;;;;;;;18.42;9.43;;;11.10;99.90;;;;;;6280607;22;20010;-81
2022/04/15 00:56:36;;;;;;;17.23;9.43;;;11.10;99.90;;;;;;6280255;22;20682;-81
2022/04/15 00:59:05;;;;;;;16.70;9.68;;;11.20;99.90;;;;;;6254939;22;20374;-81
2022/04/15 01:01:33;;;;;;;17.73;9.60;;;11.20;99.90;;;;;;6280484;22;20027;-81
2022/04/15 01:04:05;;;;;;;18.52;9.57;;;11.10;99.90;;;;;;6255065;22;20340;-81
2022/04/15 01:06:34;;;;;;;18.08;9.60;;;11.10;99.90;;;;;;6281524;22;20340;-81
2022/04/15 01:09:03;;;;;;;14.52;9.00;;;11.10;99.90;;;;;;6254881;22;20015;-81
2022/04/15 01:11:33;;;;;;;17.80;9.73;;;11.00;99.90;;;;;;6308226;22;20003;-81
2022/04/15 01:14:02;;;;;;;15.73;8.73;;;11.00;99.90;;;;;;6306248;22;20003;-81
2022/04/15 01:16:33;;;;;;;15.80;9.02;;;11.00;99.90;;;;;;6306144;22;20061;-81
2022/04/15 01:19:00;;;;;;;17.58;9.18;;;11.00;99.90;;;;;;6308115;22;19999;-81
2022/04/15 01:21:31;;;;;;;17.70;9.75;;;11.00;99.90;;;;;;6280537;22;20027;-81
2022/04/15 01:23:58;;;;;;;20.52;10.25;;;10.90;99.90;;;;;;6254919;22;20016;-81
2022/04/15 01:26:25;;;;;;;23.42;10.75;;;10.80;99.90;;;;;;6306159;22;20460;-81
2022/04/15 01:28:52;;;;;;;28.40;13.07;;;10.80;99.90;;;;;;6254855;22;20329;-81
2022/04/15 01:31:19;;;;;;;24.25;14.93;;;10.70;99.90;;;;;;6280408;22;20117;-81
2022/04/15 01:33:45;;;;;;;27.58;15.85;;;10.70;99.90;;;;;;6307712;22;19999;-81
2022/04/15 01:36:14;;;;;;;35.88;18.50;;;10.60;99.90;;;;;;6309201;22;20012;-81
2022/04/15 01:38:41;;;;;;;41.03;19.67;;;10.60;99.90;;;;;;6282424;22;20075;-81
2022/04/15 01:41:08;;;;;;;40.75;19.65;;;10.50;99.90;;;;;;6309951;22;20060;-81
2022/04/15 01:43:35;;;;;;;40.47;18.15;;;10.50;99.90;;;;;;6309918;22;20003;-81
2022/04/15 01:46:01;;;;;;;30.17;16.75;;;10.40;99.90;;;;;;6282405;22;20306;-81
2022/04/15 01:48:28;;;;;;;29.88;16.25;;;10.40;99.90;;;;;;6309951;22;20004;-81
2022/04/15 01:50:55;;;;;;;27.58;15.38;;;10.40;99.90;;;;;;6282130;22;20009;-81
2022/04/15 01:53:22;;;;;;;29.75;15.38;;;10.40;99.90;;;;;;6282275;22;20015;-81
2022/04/15 01:55:49;;;;;;;27.95;13.60;;;10.40;99.90;;;;;;6309335;22;20029;-81
2022/04/15 01:58:19;;;;;;;28.30;14.27;;;10.40;99.90;;;;;;6303422;22;20353;-81
2022/04/15 02:00:46;;;;;;;26.42;14.20;;;10.40;99.90;;;;;;6282182;22;20010;-81
2022/04/15 02:03:12;;;;;;;23.77;13.07;;;10.40;99.90;;;;;;6307873;22;20007;-80
2022/04/15 02:05:39;;;;;;;27.92;13.93;;;10.40;99.90;;;;;;6333837;22;20025;-81
2022/04/15 02:08:07;;;;;;;24.00;13.27;;;10.40;99.90;;;;;;6282034;22;20451;-80
2022/04/15 02:10:33;;;;;;;24.80;14.07;;;10.40;99.90;;;;;;6333690;22;20006;-80
2022/04/15 02:13:00;;;;;;;26.73;13.70;;;10.40;99.90;;;;;;6307903;22;20003;-81
2022/04/15 02:15:27;;;;;;;31.92;15.45;;;10.30;99.90;;;;;;6281973;22;20007;-81
2022/04/15 02:17:54;;;;;;;26.50;13.80;;;10.30;99.90;;;;;;6333800;22;20019;-80
2022/04/15 02:20:23;;;;;;;29.67;14.40;;;10.40;99.90;;;;;;6307634;22;20472;-81
2022/04/15 02:22:52;;;;;;;24.42;14.35;;;10.40;99.90;;;;;;6309600;22;20013;-81
2022/04/15 02:25:19;;;;;;;23.33;13.80;;;10.40;99.90;;;;;;6309246;22;20045;-81
2022/04/15 02:27:45;;;;;;;24.75;13.57;;;10.30;99.90;;;;;;6309372;22;20011;-81
2022/04/15 02:30:12;;;;;;;26.88;13.93;;;10.30;99.90;;;;;;6308447;22;19996;-81
2022/04/15 02:32:39;;;;;;;20.15;12.00;;;10.30;99.90;;;;;;6333607;22;20014;-81
2022/04/15 02:35:08;;;;;;;20.88;13.20;;;10.30;99.90;;;;;;6307505;22;20400;-80
2022/04/15 02:37:40;;;;;;;24.77;12.63;;;10.30;99.90;;;;;;6281876;22;20019;-81
2022/04/15 02:40:08;;;;;;;22.70;11.77;;;10.30;99.90;;;;;;6307478;22;20003;-80
2022/04/15 02:42:35;;;;;;;22.15;11.45;;;10.40;99.90;;;;;;6307518;22;20010;-80
2022/04/15 02:45:05;;;;;;;19.17;11.73;;;10.40;99.90;;;;;;6307450;22;20010;-80
2022/04/15 02:47:31;;;;;;;18.58;10.57;;;10.40;99.90;;;;;;6309351;22;20007;-80
2022/04/15 02:49:58;;;;;;;16.33;10.48;;;10.40;99.90;;;;;;6309025;22;20003;-80
2022/04/15 02:52:25;;;;;;;19.00;10.05;;;10.40;99.90;;;;;;6281660;22;20003;-80
2022/04/15 02:54:52;;;;;;;19.80;9.30;;;10.40;99.90;;;;;;6309243;22;20010;-80
2022/04/15 02:57:19;;;;;;;15.70;9.00;;;10.40;99.90;;;;;;6308505;22;20019;-80
2022/04/15 02:59:45;;;;;;;15.93;9.80;;;10.40;99.90;;;;;;6255999;22;20007;-80
2022/04/15 03:02:12;;;;;;;19.45;9.38;;;10.40;99.90;;;;;;6281485;22;20088;-80
2022/04/15 03:04:40;;;;;;;16.75;9.30;;;10.40;99.90;;;;;;6307224;22;20007;-80
2022/04/15 03:07:06;;;;;;;19.30;9.18;;;10.50;99.90;;;;;;6309160;22;19999;-80
2022/04/15 03:09:33;;;;;;;16.83;9.68;;;10.50;99.90;;;;;;6309027;22;20329;-80
2022/04/15 03:11:59;;;;;;;11.55;8.00;;;10.50;99.90;;;;;;6255872;22;20442;-80
2022/04/15 03:14:26;;;;;;;17.42;9.10;;;10.50;99.90;;;;;;6309110;22;20022;-80
2022/04/15 03:16:55;;;;;;;15.63;9.23;;;10.50;99.90;;;;;;6255722;22;20015;-80
2022/04/15 03:19:22;;;;;;;16.45;9.40;;;10.50;99.90;;;;;;6307011;22;20058;-81
2022/04/15 03:21:48;;;;;;;16.10;9.05;;;10.50;99.90;;;;;;6308578;22;20011;-80
2022/04/15 03:24:15;;;;;;;15.77;8.75;;;10.50;99.90;;;;;;6308922;22;19996;-81
2022/04/15 03:26:41;;;;;;;15.32;9.00;;;10.50;99.90;;;;;;6307060;22;20057;-80
2022/04/15 03:29:08;;;;;;;14.38;8.27;;;10.50;99.90;;;;;;6308721;22;20048;-80
2022/04/15 03:31:34;;;;;;;18.55;8.35;;;10.50;99.90;;;;;;6306973;22;20018;-80
2022/04/15 03:34:01;;;;;;;15.77;8.63;;;10.50;99.90;;;;;;6308465;22;19991;-81
2022/04/15 03:36:27;;;;;;;14.23;8.18;;;10.40;99.90;;;;;;6306854;22;20019;-80
2022/04/15 03:38:54;;;;;;;13.55;8.05;;;10.30;99.90;;;;;;6282153;22;20009;-80
2022/04/15 03:41:22;;;;;;;11.20;8.32;;;10.30;99.90;;;;;;6306754;22;20069;-80
2022/04/15 03:43:50;;;;;;;12.60;7.78;;;10.40;99.90;;;;;;6281408;22;20376;-80
2022/04/15 03:46:17;;;;;;;12.32;7.50;;;10.40;99.90;;;;;;6281587;22;20006;-80
2022/04/15 03:48:44;;;;;;;12.70;7.28;;;10.50;99.90;;;;;;6255414;22;20086;-80
2022/04/15 03:51:11;;;;;;;13.20;7.55;;;10.40;99.90;;;;;;6308311;22;19999;-81
2022/04/15 03:53:38;;;;;;;15.50;7.57;;;10.40;99.90;;;;;;6308737;22;20007;-81
2022/04/15 03:56:07;;;;;;;13.77;7.30;;;10.40;99.90;;;;;;6255451;22;20012;-86
2022/04/15 03:58:36;;;;;;;11.70;7.00;;;10.40;99.90;;;;;;6307671;22;20011;-79
2022/04/15 04:01:03;;;;;;;13.68;7.00;;;10.30;99.90;;;;;;6308639;22;20440;-79
2022/04/15 04:03:30;;;;;;;11.70;6.53;;;10.40;99.90;;;;;;6306763;22;20011;-82
2022/04/15 04:05:57;;;;;;;10.68;6.63;;;10.40;99.90;;;;;;6280876;22;20042;-82
2022/04/15 04:08:24;;;;;;;13.02;7.10;;;10.30;99.90;;;;;;6308594;22;20003;-83
2022/04/15 04:10:50;;;;;;;11.68;6.20;;;10.20;99.90;;;;;;6306484;22;20074;-82
2022/04/15 04:13:17;;;;;;;10.10;6.43;;;10.30;99.90;;;;;;6281265;22;20007;-80
2022/04/15 04:15:43;;;;;;;11.77;6.65;;;10.30;99.90;;;;;;6308058;22;20000;-80
2022/04/15 04:18:14;;;;;;;9.43;6.22;;;10.40;99.90;;;;;;6308047;22;20463;-81
2022/04/15 04:20:41;;;;;;;9.13;5.93;;;10.30;99.90;;;;;;6255278;22;20565;-82
2022/04/15 04:23:08;;;;;;;9.57;6.43;;;10.40;99.90;;;;;;6281067;22;20038;-82
2022/04/15 04:25:35;;;;;;;12.80;7.18;;;10.40;99.90;;;;;;6306472;22;20003;-82
2022/04/15 04:28:01;;;;;;;10.98;6.72;;;10.40;99.90;;;;;;6306934;22;20429;-82
2022/04/15 04:30:28;;;;;;;10.30;6.85;;;10.40;99.90;;;;;;6306409;22;20007;-82
2022/04/15 04:32:59;;;;;;;11.00;6.43;;;10.50;99.90;;;;;;6280611;22;20007;-82
2022/04/15 04:35:26;;;;;;;10.07;6.38;;;10.50;99.90;;;;;;6280574;22;20007;-82
2022/04/15 04:37:53;;;;;;;11.40;7.07;;;10.40;99.90;;;;;;6280522;22;20437;-82
2022/04/15 04:40:19;;;;;;;13.85;6.90;;;10.50;99.90;;;;;;6306483;22;19999;-82
2022/04/15 04:42:50;;;;;;;9.68;6.85;;;10.40;99.90;;;;;;6280703;22;20007;-83
2022/04/15 04:45:19;;;;;;;13.90;7.60;;;10.40;99.90;;;;;;6255138;22;20034;-82
2022/04/15 04:47:47;;;;;;;13.32;7.03;;;10.50;99.90;;;;;;6254980;22;20026;-82
2022/04/15 04:50:14;;;;;;;9.55;7.05;;;10.50;99.90;;;;;;6280762;22;20073;-82
2022/04/15 04:52:46;;;;;;;10.40;6.28;;;10.50;99.90;;;;;;6307877;22;20052;-82
2022/04/15 04:55:15;;;;;;;9.13;6.22;;;10.50;99.90;;;;;;6307930;22;20038;-82
2022/04/15 04:57:45;;;;;;;12.88;7.30;;;10.60;99.90;;;;;;6268189;22;20471;-82
2022/04/15 05:00:14;;;;;;;14.25;6.90;;;10.60;99.90;;;;;;6306550;22;20007;-82
2022/04/15 05:02:42;;;;;;;12.32;6.75;;;10.60;99.90;;;;;;6306200;22;20428;-83
2022/04/15 05:05:09;;;;;;;14.52;7.07;;;10.60;99.90;;;;;;6307863;22;19999;-82
2022/04/15 05:07:37;;;;;;;16.77;6.85;;;10.70;99.90;;;;;;6306159;22;20008;-82
2022/04/15 05:10:07;;;;;;;11.93;7.15;;;10.70;99.90;;;;;;6309559;22;20019;-82
2022/04/15 05:12:34;;;;;;;16.10;7.72;;;10.70;99.90;;;;;;6309835;22;20444;-82
2022/04/15 05:15:00;;;;;;;26.85;14.90;;;10.80;99.90;;;;;;6308486;22;19999;-82
2022/04/15 05:17:33;;;;;;;16.05;10.18;;;10.80;99.90;;;;;;6308350;22;20022;-82
2022/04/15 05:20:00;;;;;;;14.15;8.25;;;10.90;99.90;;;;;;6309774;22;20124;-82
2022/04/15 05:22:26;;;;;;;17.45;8.05;;;11.00;99.90;;;;;;6309812;22;20321;-82
2022/04/15 05:24:53;;;;;;;18.20;8.85;;;11.10;99.90;;;;;;6309746;22;20003;-82
2022/04/15 05:27:20;;;;;;;27.02;8.38;;;11.20;99.90;;;;;;6310155;22;20070;-82
2022/04/15 05:29:46;;;;;;;25.00;8.27;;;11.30;99.90;;;;;;6310092;22;20061;-82
2022/04/15 05:32:13;;;;;;;30.50;9.30;;;11.40;99.90;;;;;;6308677;22;20087;-88
2022/04/15 05:34:39;;;;;;;23.13;8.23;;;11.60;99.90;;;;;;6309016;22;20031;-88
2022/04/15 05:37:06;;;;;;;20.45;8.30;;;11.70;99.90;;;;;;6309281;22;20437;-88
2022/04/15 05:39:33;;;;;;;17.83;8.18;;;11.80;99.90;;;;;;6309131;22;20003;-88
2022/04/15 05:41:59;;;;;;;13.45;7.45;;;12.00;99.90;;;;;;6308990;22;20011;-90
2022/04/15 05:44:26;;;;;;;15.25;6.22;;;12.10;99.90;;;;;;6309141;22;20027;-88
2022/04/15 05:46:52;;;;;;;23.77;6.88;;;12.30;99.90;;;;;;6308982;22;20041;-88
2022/04/15 05:49:19;;;;;;;14.05;5.20;;;12.30;99.90;;;;;;6309052;22;20101;-87
2022/04/15 05:51:49;;;;;;;13.60;4.88;;;12.60;99.90;;;;;;6308928;22;20007;-87
2022/04/15 05:54:18;;;;;;;8.57;4.28;;;12.80;99.90;;;;;;6283111;22;20003;-88
2022/04/15 05:56:45;;;;;;;7.40;4.53;;;13.00;99.90;;;;;;6308539;22;20011;-87
2022/04/15 05:59:11;;;;;;;8.35;4.60;;;13.20;99.90;;;;;;6308765;22;20015;-87
2022/04/15 06:01:38;;;;;;;12.07;4.32;;;13.30;99.90;;;;;;6308753;22;20007;-88
2022/04/15 06:04:07;;;;;;;8.55;3.72;;;13.40;99.90;;;;;;6308743;22;20007;-88
2022/04/15 06:06:34;;;;;;;12.80;4.57;;;13.70;99.90;;;;;;6308728;22;20003;-88
2022/04/15 06:09:00;;;;;;;7.00;3.85;;;13.90;99.90;;;;;;6308630;22;20015;-87
2022/04/15 06:11:26;;;;;;;10.55;3.88;;;14.10;99.90;;;;;;6308805;22;20049;-88
2022/04/15 06:13:53;;;;;;;9.38;4.07;;;14.20;99.90;;;;;;6308944;22;20031;-87
2022/04/15 06:16:26;;;;;;;10.95;4.07;;;14.40;99.90;;;;;;6308661;22;20015;-88
2022/04/15 06:18:53;;;;;;;5.55;3.08;;;14.50;99.90;;;;;;6308765;22;20023;-88
2022/04/15 06:21:19;;;;;;;5.60;3.38;;;14.60;99.90;;;;;;6308191;22;20010;-88
2022/04/15 06:23:46;;;;;;;8.93;3.78;;;14.70;99.90;;;;;;6308513;22;20345;-88
2022/04/15 06:26:13;;;;;;;11.32;3.85;;;14.80;99.90;;;;;;6308627;22;20482;-88
2022/04/15 06:28:39;;;;;;;5.57;3.30;;;14.80;99.90;;;;;;6308644;22;20022;-88
2022/04/15 06:31:12;;;;;;;7.38;3.38;;;15.20;99.90;;;;;;6308820;22;19999;-88
2022/04/15 06:33:38;;;;;;;7.25;3.05;;;15.90;99.90;;;;;;6308513;22;20012;-88
2022/04/15 06:36:05;;;;;;;5.82;2.78;;;16.00;99.90;;;;;;6308375;22;20318;-87
2022/04/15 06:38:34;;;;;;;7.50;2.90;;;16.10;99.90;;;;;;6308425;22;20022;-88
2022/04/15 06:41:01;;;;;;;4.25;2.80;;;16.20;99.90;;;;;;6308566;22;20010;-88
2022/04/15 06:43:28;;;;;;;8.90;2.22;;;16.30;99.90;;;;;;6308559;22;20015;-89
2022/04/15 06:45:54;;;;;;;4.05;2.72;;;16.60;99.90;;;;;;6308708;22;20010;-88
2022/04/15 06:48:21;;;;;;;5.18;2.92;;;16.70;99.90;;;;;;6308470;22;20061;-88
2022/04/15 06:50:48;;;;;;;5.40;2.90;;;16.90;99.90;;;;;;6308461;22;20003;-88
2022/04/15 06:53:15;;;;;;;4.18;2.58;;;17.10;99.90;;;;;;6308554;22;20065;-88
2022/04/15 06:55:41;;;;;;;4.43;2.85;;;17.20;99.90;;;;;;6308767;22;20011;-90
2022/04/15 06:58:07;;;;;;;3.13;2.40;;;17.70;99.90;;;;;;6308099;22;20019;-91
2022/04/15 07:00:36;;;;;;;6.35;3.08;;;17.80;99.90;;;;;;6309123;22;20003;-91
2022/04/15 07:03:03;;;;;;;4.90;2.95;;;18.10;99.90;;;;;;6308247;22;20064;-83
2022/04/15 07:05:31;;;;;;;9.13;3.45;;;18.50;99.90;;;;;;6308123;22;20015;-90
2022/04/15 07:07:57;;;;;;;4.07;2.95;;;19.00;99.90;;;;;;6308132;22;20018;-90
2022/04/15 07:10:24;;;;;;;4.80;3.13;;;19.30;99.90;;;;;;6308159;22;20048;-91
2022/04/15 07:12:50;;;;;;;6.63;3.20;;;19.40;99.90;;;;;;6308288;22;20007;-91
2022/04/15 07:15:17;;;;;;;6.13;3.38;;;20.10;99.90;;;;;;6308459;22;20421;-91
2022/04/15 07:17:44;;;;;;;5.15;2.65;;;20.40;99.90;;;;;;6308231;22;20022;-91
2022/04/15 07:20:11;;;;;;;6.88;3.08;;;20.70;99.90;;;;;;6308309;22;20006;-93
2022/04/15 07:22:38;;;;;;;7.18;3.10;;;20.60;99.90;;;;;;6308133;22;20007;-91
2022/04/15 07:25:05;;;;;;;6.55;2.70;;;20.20;99.90;;;;;;6308157;22;20030;-90
2022/04/15 07:27:31;;;;;;;6.00;2.25;;;20.90;99.90;;;;;;6278110;22;20022;-90
2022/04/15 07:29:57;;;;;;;3.05;2.20;;;21.00;99.90;;;;;;6308228;22;20065;-88
2022/04/15 07:32:27;;;;;;;4.28;2.33;;;21.50;99.90;;;;;;6307983;22;20003;-91
2022/04/15 07:34:54;;;;;;;9.85;2.90;;;21.90;99.90;;;;;;6308095;22;20007;-92
2022/04/15 07:37:22;;;;;;;3.63;2.17;;;23.00;99.90;;;;;;6308738;22;20015;-94
2022/04/15 07:39:49;;;;;;;3.15;2.22;;;22.60;99.90;;;;;;6307979;22;20007;-92
2022/04/15 07:42:16;;;;;;;5.55;2.08;;;23.00;99.90;;;;;;6307981;22;20007;-92
2022/04/15 07:44:44;;;;;;;4.90;2.08;;;22.40;99.90;;;;;;6307882;22;20425;-90
2022/04/15 07:47:10;;;;;;;3.50;1.90;;;22.70;99.90;;;;;;6307844;22;20007;-89
2022/04/15 07:49:37;;;;;;;3.50;1.70;;;23.00;99.90;;;;;;6308148;22;20026;-89
2022/04/15 07:52:08;;;;;;;3.85;1.60;;;23.50;99.90;;;;;;6307821;22;20095;-88
2022/04/15 07:54:35;;;;;;;5.00;1.70;;;23.90;99.90;;;;;;6307556;22;20003;-88
2022/04/15 07:57:01;;;;;;;3.45;1.80;;;23.80;99.90;;;;;;6307112;22;20071;-88
2022/04/15 07:59:29;;;;;;;8.32;2.60;;;23.70;99.90;;;;;;6307706;22;20440;-89
2022/04/15 08:01:58;;;;;;;4.25;2.33;;;23.70;99.90;;;;;;6307769;22;20076;-88
2022/04/15 08:04:25;;;;;;;6.28;2.00;;;23.60;99.90;;;;;;6307561;22;20006;-88
2022/04/15 08:06:52;;;;;;;2.55;1.60;;;23.40;99.90;;;;;;6307619;22;20008;-88
2022/04/15 08:09:20;;;;;;;5.15;1.70;;;23.00;99.90;;;;;;6307999;22;20093;-88
2022/04/15 08:11:47;;;;;;;6.15;2.10;;;22.40;99.90;;;;;;6307587;22;20007;-88
2022/04/15 08:14:14;;;;;;;4.50;1.80;;;21.80;99.90;;;;;;6307484;22;20007;-88
2022/04/15 08:16:40;;;;;;;3.40;1.98;;;22.10;99.90;;;;;;6307444;22;20012;-88
2022/04/15 08:19:07;;;;;;;3.47;1.70;;;22.10;99.90;;;;;;6307596;22;20065;-88
2022/04/15 08:21:33;;;;;;;3.75;1.52;;;21.90;99.90;;;;;;6307520;22;20003;-87
2022/04/15 08:24:01;;;;;;;3.38;1.83;;;21.70;99.90;;;;;;6307331;22;20433;-87
2022/04/15 08:26:28;;;;;;;2.95;1.67;;;22.00;99.90;;;;;;6307261;22;20011;-88
2022/04/15 08:28:55;;;;;;;6.00;2.10;;;21.70;99.90;;;;;;6307782;22;20004;-88
2022/04/15 08:31:21;;;;;;;5.18;1.77;;;21.30;99.90;;;;;;6307544;22;20015;-88
2022/04/15 08:33:48;;;;;;;3.08;2.13;;;21.30;99.90;;;;;;6307529;22;19999;-88
2022/04/15 08:36:15;;;;;;;2.90;1.80;;;21.00;99.90;;;;;;6307589;22;20014;-87
2022/04/15 08:38:41;;;;;;;2.40;1.80;;;21.10;99.90;;;;;;6307671;22;20007;-88
2022/04/15 08:41:13;;;;;;;4.15;1.83;;;21.30;99.90;;;;;;6307502;22;20008;-87
2022/04/15 08:43:42;;;;;;;5.13;2.30;;;21.00;99.90;;;;;;6307127;22;20014;-88
2022/04/15 08:46:10;;;;;;;4.70;2.10;;;21.40;99.90;;;;;;6307603;22;20011;-88
2022/04/15 08:48:38;;;;;;;4.63;2.30;;;21.80;99.90;;;;;;6307411;22;20010;-88
2022/04/15 08:51:07;;;;;;;3.15;1.80;;;21.70;99.90;;;;;;6307405;22;20011;-88
2022/04/15 08:53:34;;;;;;;5.25;1.77;;;21.50;99.90;;;;;;6307440;22;20003;-89
2022/04/15 08:56:01;;;;;;;3.50;2.30;;;21.60;99.90;;;;;;6307189;22;20348;-88
2022/04/15 08:58:28;;;;;;;4.53;2.05;;;21.60;99.90;;;;;;6307022;22;20015;-88
2022/04/15 09:00:55;;;;;;;3.83;1.90;;;21.60;99.90;;;;;;6281492;22;20333;-88
2022/04/15 09:03:21;;;;;;;4.85;2.40;;;21.50;99.90;;;;;;6307174;22;20011;-88
2022/04/15 09:05:51;;;;;;;3.65;1.80;;;21.40;99.90;;;;;;6307475;22;20007;-88
2022/04/15 09:08:18;;;;;;;6.63;2.15;;;21.00;99.90;;;;;;6307227;22;20008;-89
2022/04/15 09:10:59;;;;;;;3.53;2.47;;;20.90;99.90;;;;;;6307132;22;19999;-88
2022/04/15 09:13:31;;;;;;;7.30;2.17;;;20.70;99.90;;;;;;6307073;22;20085;-88
2022/04/15 09:16:01;;;;;;;4.00;1.80;;;20.30;99.90;;;;;;6307170;22;20026;-87
2022/04/15 09:18:35;;;;;;;7.97;2.55;;;20.20;99.90;;;;;;6307125;22;20019;-88
2022/04/15 09:21:22;;;;;;;4.25;2.03;;;20.20;99.90;;;;;;6306989;22;20011;-88
2022/04/15 09:23:51;;;;;;;2.15;1.77;;;20.20;99.90;;;;;;6307312;22;20448;-87
2022/04/15 09:26:19;;;;;;;2.88;1.90;;;20.10;99.90;;;;;;6307336;22;20003;-88
2022/04/15 09:28:47;;;;;;;3.35;1.60;;;19.90;99.90;;;;;;6307144;22;20007;-87
2022/04/15 09:31:16;;;;;;;3.80;2.50;;;19.80;99.90;;;;;;6306981;22;20031;-88
2022/04/15 09:33:58;;;;;;;4.13;2.30;;;19.90;99.90;;;;;;6307105;22;20341;-87
2022/04/15 09:36:34;;;;;;;3.25;2.00;;;19.70;99.90;;;;;;6307055;22;20015;-88
2022/04/15 09:39:10;;;;;;;3.05;1.98;;;19.70;99.90;;;;;;6307099;22;20015;-88
2022/04/15 09:41:48;;;;;;;3.08;2.05;;;19.70;99.90;;;;;;6333242;22;20090;-87
2022/04/15 09:44:15;;;;;;;5.70;2.22;;;19.80;99.90;;;;;;6307102;22;20011;-87
2022/04/15 09:46:44;;;;;;;2.60;1.50;;;19.90;99.90;;;;;;6305989;22;20022;-88
2022/04/15 09:49:12;;;;;;;5.47;1.55;;;19.90;99.90;;;;;;6306354;22;20007;-88
2022/04/15 09:51:45;;;;;;;3.63;1.90;;;19.90;99.90;;;;;;6306276;22;20321;-88
2022/04/15 09:54:23;;;;;;;3.90;1.60;;;20.00;99.90;;;;;;6306236;22;20011;-88
2022/04/15 09:56:54;;;;;;;3.53;1.70;;;20.00;99.90;;;;;;6299775;22;20016;-88
2022/04/15 09:59:23;;;;;;;4.63;1.63;;;20.00;99.90;;;;;;6251357;22;20007;-88
2022/04/15 10:02:05;;;;;;;3.40;1.63;;;20.10;99.90;;;;;;6226422;22;20034;-88
2022/04/15 10:04:33;;;;;;;3.63;1.85;;;20.20;99.90;;;;;;6226172;22;20011;-88
2022/04/15 10:07:05;;;;;;;1.65;1.40;;;20.00;99.90;;;;;;6226128;22;20004;-87
2022/04/15 10:09:38;;;;;;;4.72;1.40;;;20.10;99.90;;;;;;6251296;22;20035;-88
2022/04/15 10:12:06;;;;;;;2.22;1.55;;;20.00;99.90;;;;;;6226115;22;20007;-88
2022/04/15 10:14:35;;;;;;;4.53;1.63;;;20.00;99.90;;;;;;6251151;22;20065;-87
2022/04/15 10:17:03;;;;;;;2.85;1.40;;;20.10;99.90;;;;;;6233714;22;20054;-88
2022/04/15 10:19:32;;;;;;;4.22;1.48;;;20.00;99.90;;;;;;6257375;22;20007;-87
2022/04/15 10:21:59;;;;;;;3.45;1.17;;;20.20;99.90;;;;;;6257395;22;20007;-88
2022/04/15 10:24:26;;;;;;;1.98;1.40;;;20.10;99.90;;;;;;6282658;22;20508;-87
2022/04/15 10:27:00;;;;;;;2.92;1.40;;;20.20;99.90;;;;;;6308671;22;20007;-88
2022/04/15 10:29:27;;;;;;;3.22;1.52;;;20.30;99.90;;;;;;6282823;22;20007;-88
2022/04/15 10:31:53;;;;;;;3.80;1.55;;;20.30;99.90;;;;;;6308552;22;20057;-87
2022/04/15 10:34:22;;;;;;;4.45;1.50;;;20.30;99.90;;;;;;6308518;22;20004;-88
2022/04/15 10:37:03;;;;;;;4.10;1.60;;;20.30;99.90;;;;;;6257017;22;20015;-88
2022/04/15 10:39:45;;;;;;;2.70;1.50;;;20.20;99.90;;;;;;6257116;22;20057;-88
2022/04/15 10:42:18;;;;;;;3.17;1.77;;;20.30;99.90;;;;;;6282514;22;20039;-88
2022/04/15 10:44:45;;;;;;;3.88;2.03;;;20.40;99.90;;;;;;6282570;22;20086;-88
2022/04/15 10:47:19;;;;;;;2.88;1.30;;;20.50;99.90;;;;;;6257018;22;20061;-88
2022/04/15 10:49:53;;;;;;;;;;;20.50;99.90;;;;;;6283162;22;20007;-88
2022/04/15 10:52:28;;;;;;;3.05;1.30;;;20.50;99.90;;;;;;6308500;22;19910;-88
2022/04/15 10:55:17;;;;;;;2.13;1.15;;;20.60;99.90;;;;;;6257260;22;20003;-87
2022/04/15 10:57:46;;;;;;;2.42;1.50;;;20.70;99.90;;;;;;6308259;22;20027;-88
2022/04/15 11:03:02;;;;;;;1.85;1.20;;;20.80;99.90;;;;;;6308308;22;20038;-88
2022/04/15 11:05:36;;;;;;;3.03;1.60;;;20.70;99.90;;;;;;6256891;22;20060;-87
2022/04/15 11:08:06;;;;;;;;;;;20.60;99.90;;;;;;6256844;22;20018;-88
2022/04/15 11:10:42;;;;;;;5.15;1.48;;;20.50;99.90;;;;;;6307865;22;20486;-88
2022/04/15 11:13:23;;;;;;;4.00;1.40;;;20.50;99.90;;;;;;6282332;22;20101;-87
2022/04/15 11:16:10;;;;;;;3.10;1.58;;;20.50;99.90;;;;;;6282406;22;20011;-88
2022/04/15 11:18:55;;;;;;;1.77;1.10;;;20.50;99.90;;;;;;6282453;22;20456;-88
2022/04/15 11:21:26;;;;;;;4.13;1.50;;;20.60;99.90;;;;;;6256777;22;20007;-87
2022/04/15 11:23:59;;;;;;;3.97;1.30;;;20.60;99.90;;;;;;6256801;22;20018;-88
2022/04/15 11:26:27;;;;;;;1.65;1.27;;;20.70;99.90;;;;;;6282280;22;20018;-89
2022/04/15 11:28:59;;;;;;;4.68;1.42;;;20.80;99.90;;;;;;6256754;22;20078;-88
2022/04/15 11:31:31;;;;;;;1.95;1.30;;;20.80;99.90;;;;;;6256552;22;20430;-87
2022/04/15 11:34:06;;;;;;;4.93;1.23;;;20.80;99.90;;;;;;6282363;22;20003;-87
2022/04/15 11:36:39;;;;;;;4.13;1.83;;;20.80;99.90;;;;;;6282207;22;20035;-88
2022/04/15 11:39:08;;;;;;;;;;;20.70;99.90;;;;;;6257137;22;20345;-88
2022/04/15 11:41:35;;;;;;;3.80;1.50;;;20.80;99.90;;;;;;6281829;22;19937;-87
2022/04/15 11:44:04;;;;;;;3.90;2.13;;;20.90;99.90;;;;;;6256526;22;20088;-88
2022/04/15 11:46:39;;;;;;;2.78;1.70;;;20.90;99.90;;;;;;6256475;22;20086;-89
2022/04/15 11:49:15;;;;;;;4.25;1.40;;;20.90;99.90;;;;;;6307752;22;20446;-88
2022/04/15 11:51:50;;;;;;;2.78;1.70;;;21.00;99.90;;;;;;6281922;22;20097;-87
2022/04/15 11:54:21;;;;;;;3.65;1.50;;;21.00;99.90;;;;;;6281929;22;20401;-86
2022/04/15 11:56:47;;;;;;;3.28;1.30;;;21.00;99.90;;;;;;6282857;22;20023;-87
2022/04/15 11:59:14;;;;;;;3.38;1.60;;;21.10;99.90;;;;;;6307669;22;20010;-88
2022/04/15 12:01:40;;;;;;;2.22;1.63;;;21.00;99.90;;;;;;6307469;22;20342;-88
2022/04/15 12:04:07;;;;;;;4.03;1.55;;;21.10;99.90;;;;;;6307574;22;20011;-88
2022/04/15 12:06:40;;;;;;;2.67;1.55;;;21.20;99.90;;;;;;6307592;22;20018;-87
2022/04/15 12:09:17;;;;;;;3.53;1.40;;;21.10;99.90;;;;;;6307398;22;20038;-87
2022/04/15 12:11:43;;;;;;;3.92;1.50;;;21.20;99.90;;;;;;6307425;22;20012;-87
2022/04/15 12:14:10;;;;;;;2.97;1.60;;;21.30;99.90;;;;;;6307281;22;20044;-87
2022/04/15 12:16:40;;;;;;;2.85;1.40;;;21.40;99.90;;;;;;6307533;22;20068;-87
2022/04/15 12:19:08;;;;;;;3.17;2.00;;;21.50;99.90;;;;;;6306982;22;20011;-87
2022/04/15 12:21:36;;;;;;;1.85;1.20;;;21.50;99.90;;;;;;6307393;22;20000;-88
2022/04/15 12:24:29;;;;;;;4.05;1.38;;;21.50;99.90;;;;;;6307503;22;20489;-88
2022/04/15 12:27:01;;;;;;;2.90;1.13;;;21.50;99.90;;;;;;6307429;22;20014;-87
2022/04/15 12:32:26;;;;;;;4.20;1.60;;;21.50;99.90;;;;;;6333580;22;20088;-88
2022/04/15 12:34:56;;;;;;;3.15;1.50;;;21.50;99.90;;;;;;6307546;22;20008;-87
2022/04/15 12:37:43;;;;;;;4.18;1.55;;;21.40;99.90;;;;;;6333517;22;20015;-88
2022/04/15 12:40:14;;;;;;;3.83;1.30;;;21.30;99.90;;;;;;6307349;22;20086;-86
2022/04/15 12:42:43;;;;;;;3.85;1.20;;;21.30;99.90;;;;;;6333308;22;20017;-88
2022/04/15 12:45:21;;;;;;;2.30;1.40;;;21.30;99.90;;;;;;6307342;22;20010;-87
2022/04/15 12:48:02;;;;;;;1.38;1.27;;;21.30;99.90;;;;;;6307310;22;20008;-87
2022/04/15 12:50:33;;;;;;;5.50;1.60;;;21.50;99.90;;;;;;6307282;22;20069;-87
2022/04/15 12:53:03;;;;;;;3.42;1.40;;;21.30;99.90;;;;;;6307035;22;20430;-88
2022/04/15 12:55:33;;;;;;;3.35;1.35;;;21.20;99.90;;;;;;6307071;22;20100;-87